Airport ICAO


09:10 UTC

0°C

No significant clouds


An affordable passengers' Moving Map for your aircraft. Made for the iPad and the iPhone
More information here

LFPB Le Bourget


Paris FRANCE   VFR


METAR LFPB 180900Z AUTO 01002KT 9000 NSC M00/M02 Q1020 NOSIG 0h10min

TAF LFPB 180500Z 1806/1906 VRB03KT CAVOK BECMG 1810/1812 15005KT 4h10min





NOTAMS

OPEN